Time;durP1;ratioP1;P1;durP2;ratioP2;P2;SDS_P1;SDS_P2;PMS_P1;PMS_P2;Temp;Humidity;BMP_temperature;BMP_pressure;BME280_temperature;BME280_humidity;BME280_pressure;Samples;Min_cycle;Max_cycle;Signal;HPM_P1;HPM_P2
2022/08/04 00:00:27;;;;;;;17.27;9.85;;;;;;;20.98;82.63;101238.25;4936733;29;20472;-86
2022/08/04 00:03:27;;;;;;;22.55;11.02;;;;;;;20.95;81.66;101234.97;4928270;29;20034;-85
2022/08/04 00:06:01;;;;;;;17.67;10.27;;;;;;;20.92;82.17;101232.50;4926395;29;20039;-85
2022/08/04 00:08:48;;;;;;;20.73;11.68;;;;;;;20.86;81.72;101231.09;4941115;29;20039;-85
2022/08/04 00:11:22;;;;;;;20.92;11.23;;;;;;;20.79;83.13;101224.50;4934837;29;20444;-86
2022/08/04 00:14:01;;;;;;;16.70;10.93;;;;;;;20.74;82.84;101222.16;4934763;29;20527;-86
2022/08/04 00:16:29;;;;;;;19.08;11.30;;;;;;;20.69;83.85;101223.34;4941472;29;20033;-85
2022/08/04 00:18:59;;;;;;;17.83;10.35;;;;;;;20.67;83.90;101231.34;4952841;28;20022;-86
2022/08/04 00:21:26;;;;;;;17.95;10.52;;;;;;;20.61;84.35;101228.22;4952916;29;20038;-86
2022/08/04 00:23:55;;;;;;;21.38;10.57;;;;;;;20.59;84.26;101225.69;4936466;29;20424;-85
2022/08/04 00:26:20;;;;;;;19.17;10.40;;;;;;;20.55;84.56;101224.16;4924427;29;20039;-85
2022/08/04 00:28:47;;;;;;;19.13;11.02;;;;;;;20.50;84.77;101223.59;4937253;29;20032;-86
2022/08/04 00:31:14;;;;;;;21.48;11.13;;;;;;;20.44;85.38;101224.78;4923345;29;20027;-85
2022/08/04 00:33:43;;;;;;;19.75;11.20;;;;;;;20.38;84.98;101219.88;4937374;29;20072;-86
2022/08/04 00:36:10;;;;;;;19.25;10.93;;;;;;;20.37;84.15;101212.06;4938967;29;20039;-86
2022/08/04 00:38:38;;;;;;;18.10;10.95;;;;;;;20.34;85.54;101215.72;4937021;29;20042;-85
2022/08/04 00:41:34;;;;;;;19.95;11.90;;;;;;;20.32;84.38;101211.47;4934096;29;20024;-86
2022/08/04 00:44:08;;;;;;;21.30;12.18;;;;;;;20.24;85.07;101209.28;4937986;29;20023;-85
2022/08/04 00:46:44;;;;;;;19.98;11.70;;;;;;;20.23;85.47;101202.31;4945728;28;20546;-86
2022/08/04 00:49:27;;;;;;;19.65;11.68;;;;;;;20.18;85.56;101200.88;4937370;28;20039;-85
2022/08/04 00:52:19;;;;;;;18.63;12.10;;;;;;;20.10;85.68;101203.97;4945606;28;20051;-85
2022/08/04 00:54:53;;;;;;;21.05;11.32;;;;;;;20.07;85.67;101199.72;4953080;28;20310;-85
2022/08/04 00:57:37;;;;;;;19.98;10.20;;;;;;;20.03;85.59;101195.56;4952451;29;20066;-85
2022/08/04 01:00:09;;;;;;;17.45;9.98;;;;;;;19.98;86.52;101199.41;4949151;29;20028;-85
2022/08/04 01:02:50;;;;;;;17.02;9.93;;;;;;;19.97;85.33;101195.06;4934040;29;20042;-85
2022/08/04 01:05:40;;;;;;;17.95;10.52;;;;;;;19.92;85.95;101192.72;4951898;29;20042;-85
2022/08/04 01:08:33;;;;;;;21.23;10.30;;;;;;;19.87;86.47;101192.09;4937361;29;20059;-85
2022/08/04 01:11:29;;;;;;;16.63;9.88;;;;;;;19.86;85.73;101193.03;4916319;29;20035;-86
2022/08/04 01:14:22;;;;;;;14.32;9.57;;;;;;;19.79;86.22;101189.06;4940618;29;20038;-85
2022/08/04 01:16:51;;;;;;;16.33;10.73;;;;;;;19.75;87.29;101182.28;4941398;29;20027;-86
2022/08/04 01:19:51;;;;;;;17.00;10.85;;;;;;;19.69;85.99;101180.84;5644183;23;20019;-93
2022/08/04 01:25:39;;;;;;;;;;;;;;;;;;;;;
2022/08/04 01:29:03;;;;;;;18.50;10.50;;;;;;;19.64;86.74;101172.38;4868621;29;21700;-89
2022/08/04 01:32:01;;;;;;;16.58;9.93;;;;;;;19.59;86.34;101166.50;4888425;29;20033;-89
2022/08/04 01:35:06;;;;;;;;;;;;;;;;;;;;;
2022/08/04 01:38:01;;;;;;;16.02;9.65;;;;;;;19.60;86.82;101175.25;4894102;29;20035;-89
2022/08/04 01:40:59;;;;;;;15.60;8.82;;;;;;;19.55;86.92;101167.63;4876199;29;20041;-89
2022/08/04 01:43:54;;;;;;;14.85;8.95;;;;;;;19.53;87.52;101166.84;4904899;29;20040;-89
2022/08/04 01:46:37;;;;;;;;;;;;;;;19.57;84.15;101157.88;4876581;29;20172;-89
2022/08/04 01:49:18;;;;;;;15.27;9.13;;;;;;;19.45;87.65;101145.34;4879730;29;19911;-89
2022/08/04 01:52:01;;;;;;;14.25;8.55;;;;;;;19.44;87.72;101146.31;4894398;29;20071;-89
2022/08/04 01:58:13;;;;;;;19.08;8.45;;;;;;;19.54;85.61;101157.19;4869119;29;20037;-88
2022/08/04 02:01:12;;;;;;;11.70;8.20;;;;;;;19.50;85.46;101159.16;4812318;29;20045;-89
2022/08/04 02:03:48;;;;;;;13.93;8.10;;;;;;;19.55;86.53;101156.25;4866071;29;20045;-89
2022/08/04 02:07:00;;;;;;;16.10;7.35;;;;;;;19.57;85.74;101157.88;4875235;29;20438;-89
2022/08/04 02:10:05;;;;;;;12.32;7.18;;;;;;;19.52;86.07;101145.88;4877393;29;20508;-88
2022/08/04 02:13:10;;;;;;;13.50;7.85;;;;;;;19.55;85.71;101151.00;4897196;29;20442;-89
2022/08/04 02:16:02;;;;;;;12.23;7.40;;;;;;;19.54;85.83;101147.50;4874263;29;20182;-89
2022/08/04 02:18:53;;;;;;;12.07;7.20;;;;;;;19.54;86.03;101147.50;4874929;29;20077;-89
2022/08/04 02:21:45;;;;;;;14.27;7.22;;;;;;;19.49;86.48;101132.94;4875468;29;20067;-89
2022/08/04 02:24:37;;;;;;;13.00;7.40;;;;;;;19.46;86.30;101133.06;4885724;29;20047;-89
2022/08/04 02:27:13;;;;;;;14.20;7.65;;;;;;;19.43;87.11;101136.72;4898217;29;20051;-89
2022/08/04 02:31:01;;;;;;;15.00;7.32;;;;;;;19.39;85.84;101135.19;4889691;29;20170;-89
2022/08/04 02:33:30;;;;;;;13.80;7.38;;;;;;;19.42;86.78;101132.41;4896989;29;20028;-89
2022/08/04 02:36:02;;;;;;;11.63;7.07;;;;;;;19.36;86.79;101124.84;4895017;29;20036;-89
2022/08/04 02:39:02;;;;;;;11.77;7.32;;;;;;;19.41;86.85;101130.69;4896247;29;20036;-88
2022/08/04 02:41:55;;;;;;;15.52;6.97;;;;;;;19.31;86.36;101119.81;4892290;29;20056;-89
2022/08/04 02:44:38;;;;;;;15.32;7.18;;;;;;;19.33;86.54;101125.84;4882270;29;20036;-89
2022/08/04 02:47:11;;;;;;;13.15;6.78;;;;;;;19.38;87.69;101130.84;4896384;29;20028;-89
2022/08/04 02:50:21;;;;;;;10.98;6.65;;;;;;;19.32;85.81;101118.91;4895022;29;20048;-88
2022/08/04 02:53:01;;;;;;;12.93;6.93;;;;;;;19.30;86.99;101120.78;4878726;29;20036;-89
2022/08/04 02:56:01;;;;;;;10.98;5.95;;;;;;;19.28;87.55;101119.16;4895498;29;20024;-89
2022/08/04 02:58:56;;;;;;;12.85;6.47;;;;;;;19.23;86.76;101111.53;4895913;29;20028;-88
2022/08/04 03:01:24;;;;;;;11.52;6.82;;;;;;;19.22;87.01;101109.00;4886692;29;20042;-89
2022/08/04 03:04:39;;;;;;;10.60;6.40;;;;;;;19.19;85.31;101106.53;4912551;29;20040;-88
2022/08/04 03:07:38;;;;;;;9.77;6.13;;;;;;;19.22;86.63;101114.25;4892354;29;20037;-88
2022/08/04 03:10:48;;;;;;;12.55;6.45;;;;;;;19.18;86.59;101104.81;4912216;29;20517;-89
2022/08/04 03:13:38;;;;;;;13.65;6.00;;;;;;;19.17;86.09;101109.25;4912818;29;20028;-89
2022/08/04 03:17:02;;;;;;;11.40;6.28;;;;;;;19.14;85.82;101100.69;4889596;29;20396;-89
2022/08/04 03:20:01;;;;;;;10.18;5.95;;;;;;;19.16;86.61;101107.56;4807427;29;20208;-88
2022/08/04 03:23:03;;;;;;;14.73;5.70;;;;;;;19.13;86.35;101097.19;4817324;29;20118;-88
2022/08/04 03:26:26;;;;;;;12.85;6.10;;;;;;;19.11;85.78;101090.31;4811849;29;20106;-88
2022/08/04 03:29:39;;;;;;;13.68;5.95;;;;;;;19.16;85.99;101097.03;4913123;29;20551;-88
2022/08/04 03:32:50;;;;;;;11.77;5.93;;;;;;;19.13;86.00;101094.56;4804716;29;20420;-89
2022/08/04 03:35:50;;;;;;;11.23;5.70;;;;;;;19.14;86.80;101093.63;4915463;29;20024;-89
2022/08/04 03:38:56;;;;;;;14.98;6.40;;;;;;;19.14;85.94;101103.31;4897384;29;20040;-88
2022/08/04 03:42:03;;;;;;;16.10;6.95;;;;;;;19.21;86.06;101116.03;4899399;29;20115;-88
2022/08/04 03:45:06;;;;;;;13.20;6.15;;;;;;;19.28;85.46;101121.78;4841818;29;20053;-89
2022/08/04 03:48:12;;;;;;;15.88;6.50;;;;;;;19.32;84.39;101115.41;4842068;29;20045;-88
2022/08/04 03:54:04;;;;;;;16.10;6.68;;;;;;;19.41;85.01;101099.13;4852898;29;20458;-88
2022/08/04 03:56:50;;;;;;;14.00;6.22;;;;;;;19.40;84.59;101094.81;4916086;29;20028;-88
2022/08/04 03:59:50;;;;;;;14.68;6.30;;;;;;;19.43;83.99;101097.28;4910811;29;20472;-88
2022/08/04 04:02:55;;;;;;;17.25;6.47;;;;;;;19.38;83.68;101101.94;4899136;29;20095;-89
2022/08/04 04:05:29;;;;;;;;;;;;;;;19.52;83.13;101116.97;4887655;29;20028;-88
2022/08/04 04:08:26;;;;;;;15.60;6.47;;;;;;;19.49;84.86;101107.47;4898365;29;19911;-89
2022/08/04 04:11:06;;;;;;;15.73;6.32;;;;;;;19.49;84.62;101118.00;4894077;29;20115;-88
2022/08/04 04:14:05;;;;;;;15.25;6.32;;;;;;;19.56;84.01;101143.03;4892492;29;20244;-89
2022/08/04 04:17:26;;;;;;;17.80;6.60;;;;;;;19.61;84.20;101137.50;4899479;29;20496;-88
2022/08/04 04:20:13;;;;;;;13.38;7.03;;;;;;;19.64;85.47;101127.66;4896423;29;20660;-88
2022/08/04 04:23:18;;;;;;;15.20;6.97;;;;;;;19.67;84.56;101127.47;4911847;29;20067;-88
2022/08/04 04:26:00;;;;;;;15.77;6.93;;;;;;;19.69;83.23;101130.03;4903434;29;20420;-89
2022/08/04 04:32:00;;;;;;;19.17;6.30;;;;;;;19.82;82.44;101138.91;4915363;29;20056;-89
2022/08/04 04:35:04;;;;;;;12.07;6.18;;;;;;;19.86;84.17;101148.31;4895719;29;20028;-89
2022/08/04 04:37:47;;;;;;;10.50;6.05;;;;;;;19.89;83.57;101142.03;4902781;29;20046;-89
2022/08/04 04:40:59;;;;;;;;;;;;;;;;;;;;;
2022/08/04 04:44:22;;;;;;;14.73;6.20;;;;;;;19.86;83.23;101143.03;4914781;29;20374;-89
2022/08/04 04:47:16;;;;;;;15.00;6.13;;;;;;;19.87;83.33;101144.75;4814197;29;20048;-88
2022/08/04 04:50:08;;;;;;;13.85;6.03;;;;;;;19.89;83.62;101140.25;4895132;29;20052;-88
2022/08/04 04:53:01;;;;;;;14.63;6.05;;;;;;;19.93;84.11;101149.66;4891031;29;20039;-88
2022/08/04 04:56:01;;;;;;;15.18;6.20;;;;;;;19.96;84.92;101143.38;4915301;29;20031;-89
2022/08/04 04:58:32;;;;;;;15.13;6.43;;;;;;;19.99;85.52;101135.31;4898365;29;20119;-88
2022/08/04 05:01:24;;;;;;;14.02;6.25;;;;;;;20.06;83.12;101147.19;4898122;29;20024;-88
2022/08/04 05:03:56;;;;;;;18.90;6.10;;;;;;;20.13;85.50;101149.34;4888954;29;20076;-89
2022/08/04 05:06:27;;;;;;;18.70;6.13;;;;;;;20.21;84.96;101150.69;4896560;29;20044;-89
2022/08/04 05:09:32;;;;;;;21.20;6.45;;;;;;;20.27;83.85;101153.78;4890951;29;20036;-88
2022/08/04 05:12:51;;;;;;;14.37;6.43;;;;;;;20.40;84.20;101159.25;4893216;29;20087;-89
2022/08/04 05:15:30;;;;;;;14.95;6.00;;;;;;;20.48;85.44;101163.09;4856051;29;20063;-89
2022/08/04 05:18:13;;;;;;;13.20;6.20;;;;;;;20.56;85.72;101162.63;4898012;29;20036;-89
2022/08/04 05:24:15;;;;;;;13.27;5.70;;;;;;;20.62;85.98;101159.63;4919791;29;20064;-88
2022/08/04 05:26:49;;;;;;;12.52;5.72;;;;;;;20.66;86.08;101155.88;4900318;29;20040;-88
2022/08/04 05:29:28;;;;;;;13.88;6.35;;;;;;;20.72;86.03;101155.50;4914147;29;20040;-88
2022/08/04 05:32:37;;;;;;;12.55;6.40;;;;;;;20.80;86.03;101155.03;4904746;29;20031;-89
2022/08/04 05:35:10;;;;;;;16.20;6.53;;;;;;;20.82;86.78;101155.78;4896151;29;20028;-88
2022/08/04 05:37:40;;;;;;;13.57;6.53;;;;;;;20.93;84.04;101160.41;4900748;29;20039;-88
2022/08/04 05:40:14;;;;;;;14.00;6.93;;;;;;;20.96;86.34;101158.41;4900887;29;20024;-89
2022/08/04 05:42:49;;;;;;;14.05;6.22;;;;;;;21.06;86.57;101162.19;4901480;29;20408;-89
2022/08/04 05:45:22;;;;;;;14.27;6.28;;;;;;;21.15;86.41;101166.88;4892726;29;20484;-89
2022/08/04 05:48:04;;;;;;;21.50;7.25;;;;;;;21.24;86.99;101161.06;4897538;29;20027;-89
2022/08/04 05:50:33;;;;;;;18.92;8.82;;;;;;;21.32;85.82;101144.75;4893647;29;20032;-89
2022/08/04 05:53:00;;;;;;;19.80;8.45;;;;;;;21.37;85.63;101153.22;4890770;29;20288;-89
2022/08/04 05:55:29;;;;;;;22.15;8.27;;;;;;;21.53;86.72;101155.72;4898095;29;20377;-89
2022/08/04 05:57:57;;;;;;;29.83;8.90;;;;;;;21.57;87.32;101136.09;4903403;29;20039;-89
2022/08/04 06:00:33;;;;;;;23.17;10.27;;;;;;;21.65;86.12;101137.31;4924798;29;20019;-88
2022/08/04 06:03:09;;;;;;;24.23;10.43;;;;;;;21.68;86.18;101129.19;4897344;29;20035;-88
2022/08/04 06:05:45;;;;;;;33.30;10.75;;;;;;;21.81;86.21;101139.78;4891442;29;20051;-89
2022/08/04 06:08:20;;;;;;;24.00;12.50;;;;;;;21.87;83.37;101139.38;4899782;29;20031;-89
2022/08/04 06:10:50;;;;;;;26.75;12.00;;;;;;;21.95;84.22;101134.44;4914268;29;20061;-89
2022/08/04 06:13:19;;;;;;;22.02;12.95;;;;;;;22.01;84.84;101133.22;4912873;29;20039;-88
2022/08/04 06:15:48;;;;;;;25.77;13.35;;;;;;;22.10;84.18;101137.91;4919471;29;20028;-88
2022/08/04 06:18:21;;;;;;;24.23;13.65;;;;;;;22.11;83.69;101131.66;4915543;29;20082;-88
2022/08/04 06:20:50;;;;;;;36.60;14.23;;;;;;;22.17;81.87;101138.34;4924122;29;20038;-88
2022/08/04 06:23:19;;;;;;;35.28;14.52;;;;;;;22.24;83.58;101140.47;4895223;29;20060;-89
2022/08/04 06:25:54;;;;;;;36.72;15.93;;;;;;;22.35;80.91;101134.44;4909445;29;20053;-88
2022/08/04 06:28:21;;;;;;;32.33;15.23;;;;;;;22.37;80.03;101138.69;4903747;29;20505;-88
2022/08/04 06:31:02;;;;;;;30.30;13.90;;;;;;;22.48;81.88;101142.38;4902053;29;20044;-89
2022/08/04 06:33:33;;;;;;;30.20;14.65;;;;;;;22.57;80.88;101139.94;4901333;29;20488;-89
2022/08/04 06:36:01;;;;;;;33.17;15.88;;;;;;;22.67;80.42;101134.84;4913662;29;20497;-89
2022/08/04 06:38:31;;;;;;;32.50;15.00;;;;;;;22.68;81.78;101124.19;4910986;29;20032;-89
2022/08/04 06:40:58;;;;;;;26.42;16.17;;;;;;;22.79;79.61;101131.41;4896799;29;20024;-89
2022/08/04 06:43:37;;;;;;;24.95;15.32;;;;;;;22.91;78.72;101140.28;4912688;29;20043;-89
2022/08/04 06:46:09;;;;;;;32.33;16.08;;;;;;;23.02;78.26;101156.22;4897878;29;20024;-89
2022/08/04 06:48:36;;;;;;;26.00;14.68;;;;;;;23.07;78.98;101140.84;4895974;29;20059;-89
2022/08/04 06:51:02;;;;;;;30.73;15.13;;;;;;;23.18;79.02;101149.75;4895352;29;20063;-89
2022/08/04 06:53:33;;;;;;;24.58;14.88;;;;;;;23.36;78.02;101155.50;4894988;29;20523;-89
2022/08/04 06:56:00;;;;;;;22.80;13.50;;;;;;;23.55;75.34;101166.47;4912323;29;20032;-89
2022/08/04 06:58:31;;;;;;;23.90;12.40;;;;;;;23.65;75.98;101152.56;4913506;29;20055;-89
2022/08/04 07:01:08;;;;;;;22.77;12.38;;;;;;;23.81;77.50;101161.09;4894154;29;20032;-88
2022/08/04 07:03:44;;;;;;;17.30;9.88;;;;;;;23.91;74.72;101152.34;4891113;29;20043;-89
2022/08/04 07:06:24;;;;;;;16.98;8.75;;;;;;;24.02;74.69;101154.16;4911712;29;20123;-89
2022/08/04 07:08:55;;;;;;;17.65;10.07;;;;;;;24.18;72.27;101156.53;4900435;29;20099;-89
2022/08/04 07:11:33;;;;;;;19.83;9.15;;;;;;;24.36;74.92;101153.34;4901633;29;20027;-89
2022/08/04 07:14:02;;;;;;;17.20;9.40;;;;;;;24.54;74.03;101160.88;4916275;29;20503;-88
2022/08/04 07:16:29;;;;;;;17.25;8.75;;;;;;;24.69;74.47;101167.63;4902076;29;20315;-89
2022/08/04 07:19:14;;;;;;;19.25;9.00;;;;;;;24.73;73.87;101159.31;4896161;29;20032;-88
2022/08/04 07:21:39;;;;;;;16.70;7.95;;;;;;;24.73;74.56;101163.78;4894870;29;20081;-89
2022/08/04 07:24:10;;;;;;;23.23;10.10;;;;;;;24.73;71.64;101161.13;4887897;29;20072;-89
2022/08/04 07:26:38;;;;;;;17.65;9.43;;;;;;;24.79;72.23;101152.69;4877208;29;20064;-88
2022/08/04 07:29:04;;;;;;;23.10;14.13;;;;;;;24.93;70.99;101160.44;4880796;29;20036;-89
2022/08/04 07:31:44;;;;;;;25.35;14.68;;;;;;;24.97;71.16;101155.75;4888238;29;20457;-88
2022/08/04 07:34:09;;;;;;;25.65;16.48;;;;;;;24.98;70.47;101158.25;4879115;29;20033;-89
2022/08/04 07:36:37;;;;;;;26.00;15.57;;;;;;;24.96;71.28;101165.50;4896579;29;20036;-88
2022/08/04 07:39:03;;;;;;;32.95;19.30;;;;;;;24.93;72.08;101167.53;4880342;29;20036;-88
2022/08/04 07:41:37;;;;;;;24.92;17.13;;;;;;;24.98;72.08;101166.22;4897114;29;20040;-88
2022/08/04 07:44:06;;;;;;;27.00;14.95;;;;;;;25.11;71.57;101180.19;4896777;29;20092;-88
2022/08/04 07:46:31;;;;;;;22.73;12.60;;;;;;;25.22;72.05;101178.53;4897359;29;20024;-88
2022/08/04 07:49:00;;;;;;;24.75;11.68;;;;;;;25.42;69.29;101161.84;4880587;29;20032;-88
2022/08/04 07:51:27;;;;;;;20.67;10.60;;;;;;;25.62;68.84;101177.03;4882430;29;20059;-88
2022/08/04 07:54:04;;;;;;;19.42;10.02;;;;;;;26.00;67.65;101184.50;4897501;29;20124;-88
2022/08/04 07:56:31;;;;;;;19.50;10.25;;;;;;;26.49;64.61;101183.06;4881681;29;20024;-89
2022/08/04 07:58:58;;;;;;;19.75;11.07;;;;;;;26.88;63.96;101178.81;4887345;29;20036;-89
2022/08/04 08:01:30;;;;;;;21.23;11.23;;;;;;;27.36;61.56;101173.69;4894772;29;20473;-89
2022/08/04 08:03:59;;;;;;;19.13;10.73;;;;;;;27.78;60.14;101169.84;4893659;29;20079;-89
2022/08/04 08:06:28;;;;;;;18.77;11.30;;;;;;;28.33;61.14;101163.97;4897493;29;20440;-89
2022/08/04 08:08:54;;;;;;;17.35;11.05;;;;;;;28.92;58.91;101175.22;4897422;29;20059;-89
2022/08/04 08:11:23;;;;;;;19.15;11.57;;;;;;;29.45;54.46;101170.03;4898342;29;20115;-88
2022/08/04 08:13:48;;;;;;;21.45;12.80;;;;;;;29.83;51.70;101171.59;4880581;29;20028;-89
2022/08/04 08:16:19;;;;;;;18.50;12.02;;;;;;;30.18;53.29;101175.25;4897318;29;20077;-89
2022/08/04 08:18:45;;;;;;;20.85;11.98;;;;;;;30.53;51.50;101179.72;4880398;29;20025;-89
2022/08/04 08:21:11;;;;;;;16.48;11.52;;;;;;;30.77;51.44;101179.06;4896323;29;20084;-89
2022/08/04 08:23:40;;;;;;;19.55;10.55;;;;;;;30.99;50.10;101189.19;4901354;29;20114;-89
2022/08/04 08:26:06;;;;;;;19.48;10.30;;;;;;;31.28;49.55;101187.00;4909436;29;20032;-89
2022/08/04 08:31:06;;;;;;;18.90;8.40;;;;;;;31.58;49.06;101198.16;5430576;23;20258;-90
2022/08/04 08:33:32;;;;;;;13.88;7.55;;;;;;;31.61;47.74;101187.13;4892412;29;20059;-89
2022/08/04 08:36:08;;;;;;;15.20;8.07;;;;;;;31.26;48.38;101191.69;4905127;29;20072;-90
2022/08/04 08:38:59;;;;;;;14.75;7.90;;;;;;;30.81;51.41;101193.78;4896663;29;20031;-89
2022/08/04 08:41:46;;;;;;;15.32;7.45;;;;;;;30.12;52.16;101195.44;4918270;29;20055;-89
2022/08/04 08:44:51;;;;;;;13.77;7.15;;;;;;;30.05;54.29;101199.72;4898985;29;20043;-88
2022/08/04 08:48:04;;;;;;;15.25;7.22;;;;;;;30.18;53.64;101197.50;4898231;29;20044;-89
2022/08/04 08:50:51;;;;;;;13.18;6.38;;;;;;;29.97;53.04;101201.47;4912170;29;20048;-90
2022/08/04 08:53:28;;;;;;;15.43;7.40;;;;;;;29.48;53.69;101208.97;4929586;29;20032;-89
2022/08/04 08:56:23;;;;;;;13.80;7.13;;;;;;;29.39;55.24;101216.06;4932918;29;20119;-89
2022/08/04 08:59:03;;;;;;;14.30;6.95;;;;;;;29.60;53.26;101222.97;4896793;29;20028;-89
2022/08/04 09:01:47;;;;;;;11.80;4.90;;;;;;;29.93;52.96;101218.84;4896013;29;20078;-88
2022/08/04 09:04:37;;;;;;;9.00;4.70;;;;;;;30.24;49.88;101218.28;4897055;29;20074;-89
2022/08/04 09:07:18;;;;;;;11.55;3.90;;;;;;;30.34;50.03;101214.69;4923421;29;20033;-89
2022/08/04 09:10:04;;;;;;;10.70;3.65;;;;;;;30.24;49.05;101217.44;4913703;29;20039;-90
2022/08/04 09:12:43;;;;;;;9.98;3.40;;;;;;;30.26;50.29;101226.16;4913580;29;20091;-89
2022/08/04 09:15:31;;;;;;;6.93;3.42;;;;;;;30.37;49.44;101222.38;4897200;29;20030;-90
2022/08/04 09:18:12;;;;;;;9.15;3.60;;;;;;;30.36;49.28;101223.41;4914864;29;20453;-90
2022/08/04 09:20:46;;;;;;;8.38;3.20;;;;;;;30.17;49.80;101214.53;4901378;29;20088;-90
2022/08/04 09:23:48;;;;;;;9.10;3.55;;;;;;;30.05;50.47;101233.66;4914946;29;20098;-89
2022/08/04 09:26:39;;;;;;;8.07;3.40;;;;;;;29.68;49.81;101228.41;4914662;29;20421;-89
2022/08/04 09:29:16;;;;;;;7.05;2.92;;;;;;;29.55;50.81;101235.94;4895668;29;20050;-89
2022/08/04 09:31:50;;;;;;;7.88;3.03;;;;;;;29.49;51.19;101242.72;4914420;29;20052;-89
2022/08/04 09:34:40;;;;;;;8.73;3.42;;;;;;;29.38;51.30;101230.41;4898385;29;20635;-89
2022/08/04 09:37:37;;;;;;;9.00;3.30;;;;;;;29.49;51.66;101242.72;4908058;29;20042;-89
2022/08/04 09:40:16;;;;;;;7.85;3.05;;;;;;;29.27;50.22;101245.75;4896651;29;20036;-89
2022/08/04 09:43:04;;;;;;;9.43;2.58;;;;;;;29.25;52.05;101250.41;4914583;29;20036;-89
2022/08/04 09:45:32;;;;;;;10.65;3.30;;;;;;;29.25;50.71;101248.56;4914636;29;20025;-89
2022/08/04 09:48:15;;;;;;;11.55;3.50;;;;;;;29.28;50.76;101255.44;4909069;29;20032;-89
2022/08/04 09:50:44;;;;;;;13.38;3.58;;;;;;;29.13;49.33;101260.44;4906283;29;20538;-89
2022/08/04 09:53:53;;;;;;;12.60;3.53;;;;;;;28.94;51.50;101258.63;4896622;29;20553;-88
2022/08/04 09:56:40;;;;;;;11.10;3.55;;;;;;;28.67;52.40;101279.88;4912981;29;20036;-89
2022/08/04 09:59:21;;;;;;;9.90;3.33;;;;;;;28.35;52.57;101274.00;4898243;29;20035;-88
2022/08/04 10:01:52;;;;;;;8.48;3.00;;;;;;;28.15;50.21;101278.50;4893917;29;20043;-88
2022/08/04 10:04:18;;;;;;;8.52;2.75;;;;;;;27.93;50.96;101287.56;4897314;29;20043;-89
2022/08/04 10:06:49;;;;;;;9.05;2.53;;;;;;;27.81;51.77;101285.97;4907306;29;20088;-89
2022/08/04 10:09:49;;;;;;;11.23;3.10;;;;;;;27.77;51.96;101300.56;4898625;29;20051;-88
2022/08/04 10:12:50;;;;;;;9.02;2.70;;;;;;;27.60;53.37;101295.88;4912459;29;20059;-88
2022/08/04 10:15:19;;;;;;;7.82;2.78;;;;;;;27.33;53.67;101299.09;4897304;29;20050;-89
2022/08/04 10:18:10;;;;;;;10.43;3.22;;;;;;;27.29;54.18;101309.19;4913947;29;20042;-89
2022/08/04 10:20:47;;;;;;;11.98;2.85;;;;;;;27.11;54.49;101316.06;4906161;29;20393;-89
2022/08/04 10:23:31;;;;;;;8.98;2.85;;;;;;;26.99;55.28;101309.16;4894090;29;20260;-89
2022/08/04 10:26:19;;;;;;;7.70;3.10;;;;;;;26.71;56.05;101300.81;4909921;29;20025;-89
2022/08/04 10:29:11;;;;;;;9.85;3.15;;;;;;;26.49;57.00;101303.56;4920875;29;20032;-89
2022/08/04 10:32:11;;;;;;;9.75;3.03;;;;;;;26.22;57.92;101343.88;4899623;29;20052;-88
2022/08/04 10:35:10;;;;;;;10.10;2.97;;;;;;;26.06;58.60;101398.41;4895292;29;20043;-88
2022/08/04 10:37:55;;;;;;;12.95;3.08;;;;;;;25.86;60.43;101407.97;4910424;29;20536;-89
2022/08/04 10:40:49;;;;;;;12.80;3.83;;;;;;;25.68;64.41;101396.94;4913626;29;20660;-89
2022/08/04 10:43:58;;;;;;;13.68;4.32;;;;;;;25.32;66.93;101379.38;4908105;29;20058;-90
2022/08/04 10:47:34;;;;;;;11.35;4.40;;;;;;;24.78;71.84;101384.34;4898193;29;20489;-91
2022/08/04 11:01:02;;;;;;;9.82;4.22;;;;;;;23.44;80.26;101293.41;4824307;29;20619;-91
2022/08/04 11:07:22;;;;;;;12.70;4.95;;;;;;;23.38;82.14;101275.31;4692673;30;20133;-91
2022/08/04 11:10:42;;;;;;;12.27;5.40;;;;;;;23.51;81.91;101299.16;4825867;29;20056;-90
2022/08/04 11:13:34;;;;;;;11.63;5.55;;;;;;;23.93;82.93;101297.88;4813991;29;20039;-91
2022/08/04 11:16:27;;;;;;;;;;;;;;;;;;;;;
2022/08/04 11:19:34;;;;;;;8.70;5.00;;;;;;;24.54;80.52;101314.63;4797825;29;20041;-92
2022/08/04 11:26:01;;;;;;;11.25;5.57;;;;;;;24.51;80.45;101338.69;4744910;30;20101;-91
2022/08/04 11:33:00;;;;;;;10.57;5.82;;;;;;;24.17;79.27;101304.03;4743093;30;20344;-91
2022/08/04 11:42:57;;;;;;;14.27;6.43;;;;;;;24.51;80.69;101301.56;4781799;29;20039;-91
2022/08/04 11:46:01;;;;;;;12.05;6.38;;;;;;;24.93;79.97;101314.28;4783292;29;20453;-90
2022/08/04 11:52:02;;;;;;;7.43;4.30;;;;;;;25.44;69.17;101296.16;4810078;29;20080;-90
2022/08/04 11:58:00;;;;;;;8.32;5.20;;;;;;;25.49;71.72;101301.09;4866886;29;20070;-90
2022/08/04 12:00:54;;;;;;;9.93;5.53;;;;;;;25.44;71.97;101304.09;4855199;29;20049;-90
2022/08/04 12:17:14;;;;;;;;;;;;;;;;;;;;;
2022/08/04 12:24:37;;;;;;;;;;;;;;;;;;;;;
2022/08/04 12:28:14;;;;;;;;;;;;;;;;;;;;;
2022/08/04 12:34:50;;;;;;;9.80;5.68;;;;;;;26.17;67.25;101318.63;4827487;29;20144;-90
2022/08/04 12:38:20;;;;;;;;;;;;;;;;;;;;;
2022/08/04 12:42:03;;;;;;;;;;;;;;;;;;;;;
2022/08/04 12:45:03;;;;;;;10.88;5.40;;;;;;;26.10;66.85;101342.22;4753503;30;20047;-90
2022/08/04 12:48:32;;;;;;;8.00;4.50;;;;;;;26.10;67.95;101344.03;4747701;30;20091;-89
2022/08/04 12:59:16;;;;;;;10.15;4.93;;;;;;;25.89;67.89;101352.75;4715567;30;20036;-89
2022/08/04 13:05:59;;;;;;;9.45;4.93;;;;;;;25.91;67.02;101348.16;4775940;29;20088;-90
2022/08/04 13:08:37;;;;;;;8.68;4.10;;;;;;;25.87;66.86;101354.69;4782020;29;20161;-89
2022/08/04 13:14:29;;;;;;;7.93;4.22;;;;;;;25.82;66.32;101362.19;4853689;29;20037;-89
2022/08/04 13:17:01;;;;;;;8.77;4.03;;;;;;;26.04;65.78;101347.19;4856931;29;20045;-89
2022/08/04 13:20:30;;;;;;;6.75;3.80;;;;;;;26.29;66.15;101352.22;4862559;29;20041;-89
2022/08/04 13:24:03;;;;;;;8.18;3.72;;;;;;;26.44;63.80;101363.41;4805005;29;20060;-89
2022/08/04 13:26:57;;;;;;;8.55;3.88;;;;;;;26.53;63.26;101357.34;4861436;29;20494;-89
2022/08/04 13:29:45;;;;;;;8.98;4.00;;;;;;;26.65;64.88;101351.88;4857621;29;20095;-90
2022/08/04 13:32:17;;;;;;;6.72;3.85;;;;;;;26.72;62.57;101342.41;4858524;29;20192;-89
2022/08/04 13:35:07;;;;;;;7.20;3.00;;;;;;;26.78;60.52;101357.00;4888858;29;20566;-90
2022/08/04 13:37:52;;;;;;;4.85;3.00;;;;;;;26.67;60.79;101360.56;4889867;29;20028;-89
2022/08/04 13:40:30;;;;;;;6.95;3.03;;;;;;;26.65;62.22;101351.88;4874074;29;20225;-89
2022/08/04 13:43:00;;;;;;;7.00;4.13;;;;;;;26.75;60.17;101346.59;4877139;29;20044;-89
2022/08/04 13:45:26;;;;;;;7.60;4.05;;;;;;;26.80;60.17;101338.25;4892433;29;20025;-89
2022/08/04 13:47:58;;;;;;;8.93;4.57;;;;;;;26.82;60.21;101338.97;4877551;29;20127;-89
2022/08/04 13:50:29;;;;;;;9.75;4.40;;;;;;;26.96;61.97;101344.00;4891089;29;20068;-88
2022/08/04 13:53:02;;;;;;;8.77;4.22;;;;;;;27.01;61.88;101339.16;4893390;29;20032;-89
2022/08/04 13:55:28;;;;;;;;;;;;;;;27.15;61.74;101336.16;4877797;29;20040;-89
2022/08/04 13:58:25;;;;;;;8.00;4.03;;;;;;;26.95;60.82;101319.22;4890530;29;19926;-89
2022/08/04 14:00:58;;;;;;;9.52;3.83;;;;;;;27.01;61.57;101321.38;4871656;29;20663;-89
2022/08/04 14:03:30;;;;;;;8.60;4.70;;;;;;;27.06;59.66;101334.25;4891128;29;20028;-89
2022/08/04 14:06:19;;;;;;;7.35;4.15;;;;;;;27.09;57.74;101329.50;4890234;29;20028;-90
2022/08/04 14:08:48;;;;;;;7.28;3.85;;;;;;;26.96;56.73;101322.69;4874101;29;20409;-89
2022/08/04 14:11:20;;;;;;;10.15;3.88;;;;;;;26.91;57.78;101335.56;4875364;29;20032;-89
2022/08/04 14:13:49;;;;;;;7.68;4.25;;;;;;;26.78;57.24;101325.06;4886903;29;20028;-88
2022/08/04 14:16:22;;;;;;;7.57;4.00;;;;;;;26.78;56.56;101321.56;4874404;29;20108;-88
2022/08/04 14:18:58;;;;;;;7.35;4.00;;;;;;;26.85;58.37;101312.09;4874891;29;20433;-89
2022/08/04 14:21:26;;;;;;;7.82;4.00;;;;;;;26.82;57.14;101323.03;4876753;29;20261;-89